Time;durP1;ratioP1;P1;durP2;ratioP2;P2;SDS_P1;SDS_P2;PMS_P1;PMS_P2;Temp;Humidity;BMP_temperature;BMP_pressure;BME280_temperature;BME280_humidity;BME280_pressure;Samples;Min_cycle;Max_cycle;Signal;HPM_P1;HPM_P2
2023/05/02 00:01:14;;;;;;;;;;;;;;;21.81;27.51;98496.75;5057544;28;962;-72
2023/05/02 00:03:40;;;;;;;;;;;;;;;21.58;28.07;98497.63;5022993;28;1179;-72
2023/05/02 00:06:06;;;;;;;;;;;;;;;21.59;28.00;98510.53;5039234;28;898;-74
2023/05/02 00:08:31;;;;;;;;;;;;;;;21.61;27.85;98502.41;5039395;28;950;-74
2023/05/02 00:10:57;;;;;;;;;;;;;;;22.32;26.93;98500.19;5039063;28;996;-74
2023/05/02 00:13:22;;;;;;;;;;;;;;;22.24;27.03;98505.22;5039495;28;1153;-74
2023/05/02 00:15:48;;;;;;;;;;;;;;;22.20;27.09;98504.50;4998431;28;1987;-74
2023/05/02 00:18:14;;;;;;;;;;;;;;;21.72;27.86;98508.69;5015279;28;1027;-74
2023/05/02 00:20:40;;;;;;;;;;;;;;;21.61;27.65;98510.13;5015068;28;1010;-74
2023/05/02 00:23:06;;;;;;;;;;;;;;;21.62;27.69;98506.84;4998684;28;1024;-74
2023/05/02 00:25:31;;;;;;;;;;;;;;;21.77;27.58;98504.53;4998845;28;951;-72
2023/05/02 00:27:57;;;;;;;;;;;;;;;21.67;27.93;98512.00;5014818;28;938;-74
2023/05/02 00:30:22;;;;;;;;;;;;;;;21.47;28.12;98511.16;4982567;28;1124;-73
2023/05/02 00:32:48;;;;;;;;;;;;;;;21.85;27.83;98518.13;5014869;28;1044;-75
2023/05/02 00:35:13;;;;;;;;;;;;;;;22.22;26.97;98512.56;4982282;28;1918;-73
2023/05/02 00:37:39;;;;;;;;;;;;;;;22.48;26.85;98513.63;5014508;28;1043;-74
2023/05/02 00:40:06;;;;;;;;;;;;;;;22.25;26.80;98512.50;5014695;28;959;-73
2023/05/02 00:42:33;;;;;;;;;;;;;;;22.04;26.80;98513.72;4982141;28;1028;-74
2023/05/02 00:44:59;;;;;;;;;;;;;;;21.42;27.79;98518.13;4982054;28;1430;-74
2023/05/02 00:47:24;;;;;;;;;;;;;;;21.42;27.72;98517.31;5029077;28;990;-75
2023/05/02 00:49:50;;;;;;;;;;;;;;;21.47;28.00;98508.34;5038789;28;940;-74
2023/05/02 00:52:15;;;;;;;;;;;;;;;21.27;28.22;98514.72;5038709;28;1033;-73
2023/05/02 00:54:42;;;;;;;;;;;;;;;21.71;28.03;98509.91;5056223;28;1977;-74
2023/05/02 00:57:07;;;;;;;;;;;;;;;22.02;27.56;98516.19;5022238;28;1250;-73
2023/05/02 00:59:35;;;;;;;;;;;;;;;22.20;27.10;98509.38;5056369;28;929;-74
2023/05/02 01:02:20;;;;;;;;;;;;;;;21.96;27.09;98511.44;5022060;28;1160;-75
2023/05/02 01:04:54;;;;;;;;;;;;;;;21.62;27.83;98511.72;5038371;28;1492;-74
2023/05/02 01:07:37;;;;;;;;;;;;;;;21.58;27.83;98514.59;5056354;28;934;-74
2023/05/02 01:10:38;;;;;;;;;;;;;;;21.72;27.45;98510.72;5038501;28;869;-74
2023/05/02 01:13:16;;;;;;;;;;;;;;;22.09;27.21;98510.38;4955893;29;952;-74
2023/05/02 01:15:42;;;;;;;;;;;;;;;22.21;27.31;98511.75;4940225;29;1903;-74
2023/05/02 01:18:08;;;;;;;;;;;;;;;21.98;27.31;98506.16;4923974;29;941;-73
2023/05/02 01:20:35;;;;;;;;;;;;;;;21.59;27.74;98516.19;4924260;29;1465;-74
2023/05/02 01:23:02;;;;;;;;;;;;;;;21.63;27.86;98508.44;4924188;29;1123;-74
2023/05/02 01:25:32;;;;;;;;;;;;;;;21.53;27.99;98512.25;4939785;29;1070;-73
2023/05/02 01:28:03;;;;;;;;;;;;;;;21.41;27.89;98505.22;4940025;29;1057;-74
2023/05/02 01:30:31;;;;;;;;;;;;;;;21.52;27.79;98508.63;4955784;29;973;-74
2023/05/02 01:32:56;;;;;;;;;;;;;;;21.53;27.91;98500.94;4924106;29;1388;-74
2023/05/02 01:35:22;;;;;;;;;;;;;;;21.43;28.10;98502.72;4939858;29;1976;-74
2023/05/02 01:37:47;;;;;;;;;;;;;;;22.00;27.29;98501.63;4924129;29;1105;-74
2023/05/02 01:40:14;;;;;;;;;;;;;;;22.03;27.49;98505.66;4923981;29;1137;-74
2023/05/02 01:42:40;;;;;;;;;;;;;;;22.06;26.83;98499.88;4939842;29;1062;-74
2023/05/02 01:45:06;;;;;;;;;;;;;;;21.98;27.10;98506.97;4939891;29;1009;-73
2023/05/02 01:47:32;;;;;;;;;;;;;;;21.88;27.16;98510.00;4993843;28;1120;-74
2023/05/02 01:49:58;;;;;;;;;;;;;;;21.49;27.55;98505.88;5038172;28;875;-74
2023/05/02 01:52:23;;;;;;;;;;;;;;;21.47;27.67;98502.69;5021582;28;1455;-74
2023/05/02 01:54:49;;;;;;;;;;;;;;;21.44;27.85;98503.53;5024549;28;1901;-74
2023/05/02 01:57:15;;;;;;;;;;;;;;;21.62;27.52;98491.88;5025212;28;1147;-74
2023/05/02 01:59:40;;;;;;;;;;;;;;;21.54;27.78;98496.88;5025407;28;1193;-74
2023/05/02 02:02:07;;;;;;;;;;;;;;;22.15;27.27;98496.50;5041964;28;1006;-74
2023/05/02 02:04:33;;;;;;;;;;;;;;;22.23;27.16;98492.31;5025095;28;1044;-74
2023/05/02 02:07:02;;;;;;;;;;;;;;;22.36;26.46;98500.94;5041460;28;1467;-75
2023/05/02 02:09:28;;;;;;;;;;;;;;;22.03;26.91;98502.81;5059686;28;971;-74
2023/05/02 02:12:10;;;;;;;;;;;;;;;21.76;27.18;98491.59;5025205;28;1373;-74
2023/05/02 02:14:39;;;;;;;;;;;;;;;21.45;27.77;98505.94;5025206;28;1085;-75
2023/05/02 02:17:05;;;;;;;;;;;;;;;21.55;27.85;98490.78;5025120;28;1179;-74
2023/05/02 02:19:31;;;;;;;;;;;;;;;22.09;27.31;98498.22;5024909;28;1228;-73
2023/05/02 02:21:57;;;;;;;;;;;;;;;22.25;26.70;98506.81;5008504;28;1055;-74
2023/05/02 02:24:22;;;;;;;;;;;;;;;21.92;27.00;98510.75;5059105;28;1078;-73
2023/05/02 02:26:48;;;;;;;;;;;;;;;21.88;27.03;98505.13;5041488;28;911;-74
2023/05/02 02:29:13;;;;;;;;;;;;;;;21.25;28.00;98514.34;5041453;28;1059;-74
2023/05/02 02:31:39;;;;;;;;;;;;;;;21.47;27.68;98502.69;5041087;28;1132;-73
2023/05/02 02:34:04;;;;;;;;;;;;;;;21.75;27.36;98513.47;5024264;28;1098;-74
2023/05/02 02:36:32;;;;;;;;;;;;;;;21.69;27.70;98509.53;5041313;28;1982;-74
2023/05/02 02:39:16;;;;;;;;;;;;;;;21.73;27.34;98510.28;5025114;28;1105;-74
2023/05/02 02:41:44;;;;;;;;;;;;;;;21.80;27.33;98515.78;5040745;28;1120;-74
2023/05/02 02:44:33;;;;;;;;;;;;;;;21.64;27.48;98512.88;5024359;28;1116;-74
2023/05/02 02:47:04;;;;;;;;;;;;;;;21.65;27.47;98508.78;4978087;28;1124;-76
2023/05/02 02:49:43;;;;;;;;;;;;;;;21.71;27.66;98514.75;4977659;28;1088;-74
2023/05/02 02:52:10;;;;;;;;;;;;;;;21.79;27.42;98521.91;4977725;28;1010;-74
2023/05/02 02:54:40;;;;;;;;;;;;;;;22.08;26.74;98520.09;4961625;28;1242;-74
2023/05/02 02:57:16;;;;;;;;;;;;;;;22.02;26.97;98521.84;4961328;28;1260;-75
2023/05/02 02:59:45;;;;;;;;;;;;;;;21.93;26.91;98518.00;4961318;28;970;-74
2023/05/02 03:02:12;;;;;;;;;;;;;;;21.79;27.11;98519.88;4961216;28;1313;-74
2023/05/02 03:04:38;;;;;;;;;;;;;;;21.66;27.23;98521.75;4976982;28;1067;-74
2023/05/02 03:07:03;;;;;;;;;;;;;;;21.37;27.59;98524.28;4961316;28;1224;-74
2023/05/02 03:09:42;;;;;;;;;;;;;;;22.22;26.69;98530.38;4961221;28;1653;-74
2023/05/02 03:12:09;;;;;;;;;;;;;;;22.26;26.68;98525.44;4945257;28;1403;-75
2023/05/02 03:14:37;;;;;;;;;;;;;;;22.11;26.64;98524.13;4960907;28;1151;-74
2023/05/02 03:17:03;;;;;;;;;;;;;;;21.74;27.26;98533.72;4961107;28;1983;-74
2023/05/02 03:19:29;;;;;;;;;;;;;;;21.81;26.85;98534.41;4960945;28;1140;-74
2023/05/02 03:21:56;;;;;;;;;;;;;;;21.55;27.27;98536.09;4960987;28;1109;-74
2023/05/02 03:24:21;;;;;;;;;;;;;;;22.09;27.26;98538.72;4963908;28;1187;-74
2023/05/02 03:26:47;;;;;;;;;;;;;;;22.38;26.77;98521.13;4980348;28;1071;-74
2023/05/02 03:29:14;;;;;;;;;;;;;;;22.20;26.85;98532.06;4964438;28;1148;-74
2023/05/02 03:31:41;;;;;;;;;;;;;;;22.10;26.75;98537.50;4980157;28;1478;-75
2023/05/02 03:34:07;;;;;;;;;;;;;;;21.91;27.00;98545.94;4995127;28;1254;-76
2023/05/02 03:36:34;;;;;;;;;;;;;;;21.69;27.22;98548.38;5015789;28;1902;-74
2023/05/02 03:39:00;;;;;;;;;;;;;;;21.59;27.60;98550.19;4983403;28;1148;-75
2023/05/02 03:41:26;;;;;;;;;;;;;;;21.55;27.70;98560.75;5015695;28;1249;-75
2023/05/02 03:43:59;;;;;;;;;;;;;;;21.72;27.61;98556.03;4999429;28;1075;-74
2023/05/02 03:46:29;;;;;;;;;;;;;;;21.63;27.91;98553.75;4983239;28;1361;-74
2023/05/02 03:48:58;;;;;;;;;;;;;;;21.74;27.64;98562.84;4983260;28;1116;-74
2023/05/02 03:51:24;;;;;;;;;;;;;;;21.87;27.40;98571.53;5015613;28;1250;-74
2023/05/02 03:53:53;;;;;;;;;;;;;;;21.56;27.83;98574.50;5015657;28;1088;-74
2023/05/02 03:56:19;;;;;;;;;;;;;;;21.42;28.03;98574.75;4982875;28;1911;-74
2023/05/02 03:58:50;;;;;;;;;;;;;;;21.98;27.36;98572.13;4983761;28;1164;-74
2023/05/02 04:01:21;;;;;;;;;;;;;;;22.27;27.13;98578.03;4983527;28;1089;-74
2023/05/02 04:03:49;;;;;;;;;;;;;;;22.15;27.18;98578.72;4998891;28;1171;-74
2023/05/02 04:06:16;;;;;;;;;;;;;;;21.83;27.62;98585.75;4982843;28;1251;-75
2023/05/02 04:08:46;;;;;;;;;;;;;;;21.43;27.99;98579.16;4983292;28;1466;-74
2023/05/02 04:11:12;;;;;;;;;;;;;;;21.56;27.84;98585.84;4986286;28;1601;-74
2023/05/02 04:13:37;;;;;;;;;;;;;;;21.66;27.78;98581.22;4998399;28;1363;-73
2023/05/02 04:16:03;;;;;;;;;;;;;;;21.68;27.89;98584.41;4997756;28;1898;-74
2023/05/02 04:18:32;;;;;;;;;;;;;;;21.71;27.58;98591.22;4998282;28;1508;-74
2023/05/02 04:21:00;;;;;;;;;;;;;;;21.49;28.08;98596.47;4998622;28;1097;-74
2023/05/02 04:23:25;;;;;;;;;;;;;;;21.66;27.95;98592.53;4966174;28;1211;-74
2023/05/02 04:25:56;;;;;;;;;;;;;;;22.13;27.25;98588.88;4983036;28;1159;-74
2023/05/02 04:28:29;;;;;;;;;;;;;;;22.33;27.30;98593.34;4999438;28;1267;-74
2023/05/02 04:30:56;;;;;;;;;;;;;;;21.84;27.61;98583.72;4982113;28;1843;-74
2023/05/02 04:33:23;;;;;;;;;;;;;;;21.68;28.04;98592.91;4998579;28;1372;-74
2023/05/02 04:35:51;;;;;;;;;;;;;;;21.57;28.29;98586.63;4982248;28;1914;-74
2023/05/02 04:38:18;;;;;;;;;;;;;;;21.53;28.18;98581.03;4998176;28;1296;-74
2023/05/02 04:40:45;;;;;;;;;;;;;;;21.53;28.39;98594.38;4998531;28;1192;-74
2023/05/02 04:43:10;;;;;;;;;;;;;;;21.53;28.10;98591.56;5015955;28;1113;-75
2023/05/02 04:45:44;;;;;;;;;;;;;;;21.61;28.38;98592.25;4979961;28;1138;-76
2023/05/02 04:48:16;;;;;;;;;;;;;;;22.18;27.28;98589.19;4978609;28;1089;-74
2023/05/02 04:50:43;;;;;;;;;;;;;;;22.17;27.33;98587.56;4994853;28;1003;-74
2023/05/02 04:53:10;;;;;;;;;;;;;;;22.32;27.12;98596.59;4978857;28;1484;-74
2023/05/02 04:55:36;;;;;;;;;;;;;;;21.99;27.38;98589.91;4974516;28;1969;-74
2023/05/02 04:58:01;;;;;;;;;;;;;;;21.93;27.61;98603.78;4979064;28;1162;-74
2023/05/02 05:00:28;;;;;;;;;;;;;;;21.75;27.83;98598.44;4978634;28;1086;-73
2023/05/02 05:02:54;;;;;;;;;;;;;;;21.72;27.91;98599.31;4959119;28;1123;-74
2023/05/02 05:05:20;;;;;;;;;;;;;;;21.68;28.03;98609.09;4943265;28;1176;-74
2023/05/02 05:07:45;;;;;;;;;;;;;;;21.53;28.41;98608.53;4959232;28;1638;-74
2023/05/02 05:10:12;;;;;;;;;;;;;;;21.62;28.27;98600.31;4943380;28;1318;-74
2023/05/02 05:12:43;;;;;;;;;;;;;;;21.54;28.40;98604.47;4959008;28;1283;-74
2023/05/02 05:15:10;;;;;;;;;;;;;;;21.70;28.41;98610.25;4943107;28;1907;-74
2023/05/02 05:17:37;;;;;;;;;;;;;;;22.22;27.36;98604.06;4961041;28;1658;-74
2023/05/02 05:20:04;;;;;;;;;;;;;;;22.19;27.41;98607.00;4978375;28;1084;-75
2023/05/02 05:22:30;;;;;;;;;;;;;;;21.84;27.90;98612.06;4974613;28;1573;-75
2023/05/02 05:24:56;;;;;;;;;;;;;;;21.68;28.20;98604.22;4959165;28;1269;-74
2023/05/02 05:27:27;;;;;;;;;;;;;;;21.70;28.26;98609.47;4975613;28;1270;-74
2023/05/02 05:29:53;;;;;;;;;;;;;;;21.63;28.38;98618.09;4962840;28;1195;-74
2023/05/02 05:32:19;;;;;;;;;;;;;;;21.47;28.68;98610.25;4978645;28;1265;-74
2023/05/02 05:34:45;;;;;;;;;;;;;;;22.02;27.98;98612.53;4995763;28;1132;-75
2023/05/02 05:37:11;;;;;;;;;;;;;;;22.29;27.41;98618.13;5001527;28;1923;-74
2023/05/02 05:39:40;;;;;;;;;;;;;;;21.96;27.56;98616.28;5001436;28;1250;-75
2023/05/02 05:42:08;;;;;;;;;;;;;;;21.62;28.38;98622.94;5001438;28;1072;-74
2023/05/02 05:44:35;;;;;;;;;;;;;;;21.69;28.13;98624.84;4985591;28;1167;-74
2023/05/02 05:47:00;;;;;;;;;;;;;;;21.71;28.36;98631.72;5001722;28;1162;-74
2023/05/02 05:49:27;;;;;;;;;;;;;;;21.49;28.50;98630.44;5001323;28;1076;-74
2023/05/02 05:51:53;;;;;;;;;;;;;;;21.56;28.56;98630.34;4969099;28;1093;-74
2023/05/02 05:54:18;;;;;;;;;;;;;;;21.64;28.55;98636.69;5001293;28;945;-74
2023/05/02 05:56:44;;;;;;;;;;;;;;;21.59;28.26;98629.47;5001183;28;1939;-73
2023/05/02 05:59:16;;;;;;;;;;;;;;;21.59;28.41;98635.13;4997622;28;1194;-73
2023/05/02 06:01:41;;;;;;;;;;;;;;;21.43;28.91;98632.16;4997998;28;1028;-73
2023/05/02 06:04:07;;;;;;;;;;;;;;;21.49;28.88;98630.44;4981357;28;1362;-73
2023/05/02 06:06:36;;;;;;;;;;;;;;;21.79;28.23;98635.19;4965640;28;1451;-73
2023/05/02 06:09:03;;;;;;;;;;;;;;;22.27;27.79;98633.94;4981445;28;1001;-73
2023/05/02 06:11:29;;;;;;;;;;;;;;;22.50;27.19;98647.28;4965785;28;1152;-71
2023/05/02 06:13:55;;;;;;;;;;;;;;;21.66;28.22;98642.69;4981608;28;1226;-75
2023/05/02 06:16:21;;;;;;;;;;;;;;;21.35;28.96;98639.16;4997665;28;1902;-75
2023/05/02 06:18:48;;;;;;;;;;;;;;;21.67;28.40;98642.28;4981403;28;1111;-76
2023/05/02 06:21:14;;;;;;;;;;;;;;;21.50;28.25;98632.03;4980023;28;993;-71
2023/05/02 06:23:39;;;;;;;;;;;;;;;21.50;28.11;98632.03;4997393;28;986;-76
2023/05/02 06:26:05;;;;;;;;;;;;;;;21.68;27.86;98637.44;4981024;28;1087;-76
2023/05/02 06:28:31;;;;;;;;;;;;;;;21.69;28.07;98634.16;4981095;28;1898;-76
2023/05/02 06:31:00;;;;;;;;;;;;;;;22.15;27.19;98638.22;5009265;28;1011;-76
2023/05/02 06:33:28;;;;;;;;;;;;;;;22.21;27.28;98645.00;5018096;28;1180;-76
2023/05/02 06:35:54;;;;;;;;;;;;;;;22.40;26.97;98642.63;5021043;28;1902;-75
2023/05/02 06:38:19;;;;;;;;;;;;;;;22.25;27.35;98648.56;5004386;28;922;-75
2023/05/02 06:40:45;;;;;;;;;;;;;;;22.66;26.79;98649.41;5004043;28;947;-76
2023/05/02 06:43:11;;;;;;;;;;;;;;;22.44;27.14;98649.03;5020585;28;810;-77
2023/05/02 06:45:36;;;;;;;;;;;;;;;22.48;26.88;98646.91;5020682;28;859;-75
2023/05/02 06:48:02;;;;;;;;;;;;;;;22.40;27.16;98648.28;5038533;28;954;-75
2023/05/02 06:50:28;;;;;;;;;;;;;;;22.34;27.30;98657.31;4996502;28;982;-75
2023/05/02 06:52:53;;;;;;;;;;;;;;;22.02;27.58;98657.06;4957421;29;990;-75
2023/05/02 06:55:19;;;;;;;;;;;;;;;21.91;27.99;98662.09;4957824;29;1907;-75
2023/05/02 06:57:44;;;;;;;;;;;;;;;22.12;27.55;98667.41;4941529;29;1091;-75
2023/05/02 07:00:10;;;;;;;;;;;;;;;22.55;27.16;98669.47;4925687;29;950;-76
2023/05/02 07:02:35;;;;;;;;;;;;;;;22.36;27.49;98669.00;4941846;29;804;-76
2023/05/02 07:05:01;;;;;;;;;;;;;;;22.41;27.45;98666.91;4941722;29;1026;-76
2023/05/02 07:07:26;;;;;;;;;;;;;;;22.49;27.29;98676.88;4957887;29;1289;-76
2023/05/02 07:09:52;;;;;;;;;;;;;;;22.47;27.08;98676.50;4957311;29;906;-76
2023/05/02 07:12:17;;;;;;;;;;;;;;;22.34;27.32;98668.66;4941617;29;1205;-76
2023/05/02 07:14:45;;;;;;;;;;;;;;;21.75;27.95;98672.06;4941628;29;1057;-76
2023/05/02 07:17:11;;;;;;;;;;;;;;;22.31;27.72;98668.72;4941390;29;1976;-76
2023/05/02 07:19:36;;;;;;;;;;;;;;;22.46;27.46;98675.69;4941623;29;926;-68
2023/05/02 07:22:02;;;;;;;;;;;;;;;22.48;28.08;98672.44;4971814;28;1459;-70
2023/05/02 07:24:27;;;;;;;;;;;;;;;22.95;26.88;98675.13;4976886;28;1058;-74
2023/05/02 07:26:53;;;;;;;;;;;;;;;23.16;26.33;98677.53;4976530;28;911;-71
2023/05/02 07:29:18;;;;;;;;;;;;;;;23.25;26.47;98674.06;4980353;28;1051;-73
2023/05/02 07:31:44;;;;;;;;;;;;;;;23.29;26.42;98678.44;5016228;28;909;-77
2023/05/02 07:34:09;;;;;;;;;;;;;;;23.18;26.45;98689.25;5001456;28;1151;-72
2023/05/02 07:36:35;;;;;;;;;;;;;;;23.32;25.97;98693.81;5037735;28;1913;-73
2023/05/02 07:39:00;;;;;;;;;;;;;;;23.19;25.99;98693.69;5036775;28;1090;-76
2023/05/02 07:41:26;;;;;;;;;;;;;;;22.67;26.67;98696.38;5037669;28;970;-75
2023/05/02 07:43:51;;;;;;;;;;;;;;;22.55;26.72;98703.50;5037564;28;963;-75
2023/05/02 07:46:17;;;;;;;;;;;;;;;22.49;27.00;98696.75;5037801;28;899;-75
2023/05/02 07:48:42;;;;;;;;;;;;;;;22.31;27.13;98697.84;5002730;28;1088;-75
2023/05/02 07:51:08;;;;;;;;;;;;;;;22.20;27.45;98691.59;5020648;28;1577;-75
2023/05/02 07:53:34;;;;;;;;;;;;;;;22.10;27.86;98689.72;5057865;28;1583;-76
2023/05/02 07:55:59;;;;;;;;;;;;;;;22.12;27.47;98683.63;5023035;28;1907;-75
2023/05/02 07:58:25;;;;;;;;;;;;;;;22.23;27.53;98693.56;5015138;28;921;-76
2023/05/02 08:00:51;;;;;;;;;;;;;;;22.19;27.38;98698.50;4995718;28;1123;-76
2023/05/02 08:03:16;;;;;;;;;;;;;;;22.25;27.33;98693.91;4995681;28;1306;-77
2023/05/02 08:05:42;;;;;;;;;;;;;;;22.03;27.73;98699.16;4976142;28;1093;-75
2023/05/02 08:08:08;;;;;;;;;;;;;;;22.08;27.86;98695.03;4976050;28;1011;-76
2023/05/02 08:10:33;;;;;;;;;;;;;;;22.06;27.90;98691.78;4960438;28;987;-75
2023/05/02 08:13:06;;;;;;;;;;;;;;;22.08;27.72;98692.19;5094062;27;1226;-75
2023/05/02 08:15:31;;;;;;;;;;;;;;;22.17;27.50;98692.44;5115000;28;1291;-76
2023/05/02 08:17:57;;;;;;;;;;;;;;;22.32;27.38;98693.78;5115096;28;949;-67
2023/05/02 08:20:22;;;;;;;;;;;;;;;22.85;26.65;98691.94;5098284;28;973;-68
2023/05/02 08:22:48;;;;;;;;;;;;;;;22.45;27.20;98696.00;5132866;28;972;-67
2023/05/02 08:25:13;;;;;;;;;;;;;;;23.13;26.21;98695.44;5132021;28;1555;-75
2023/05/02 08:27:39;;;;;;;;;;;;;;;22.68;26.45;98700.81;5103640;28;1806;-75
2023/05/02 08:30:05;;;;;;;;;;;;;;;22.32;27.30;98702.28;5103296;28;1624;-75
2023/05/02 08:32:31;;;;;;;;;;;;;;;22.37;27.19;98700.97;5103546;28;1906;-76
2023/05/02 08:34:56;;;;;;;;;;;;;;;22.28;26.98;98695.91;5119168;28;1507;-70
2023/05/02 08:37:22;;;;;;;;;;;;;;;22.18;27.54;98696.91;5129938;27;1519;-74
2023/05/02 08:39:47;;;;;;;;;;;;;;;22.09;27.39;98699.44;5132240;27;1175;-75
2023/05/02 08:42:13;;;;;;;;;;;;;;;21.90;27.89;98694.50;5114926;28;1056;-75
2023/05/02 08:44:38;;;;;;;;;;;;;;;21.69;28.15;98696.47;5081269;28;1216;-75
2023/05/02 08:47:05;;;;;;;;;;;;;;;21.83;27.96;98706.78;5103934;28;936;-75
2023/05/02 08:49:31;;;;;;;;;;;;;;;21.60;28.46;98699.03;5092086;28;931;-75
2023/05/02 08:51:57;;;;;;;;;;;;;;;21.82;28.06;98705.97;5109255;28;1917;-74
2023/05/02 08:54:24;;;;;;;;;;;;;;;21.87;27.79;98701.84;5108961;28;906;-75
2023/05/02 08:56:50;;;;;;;;;;;;;;;21.79;28.19;98689.81;5109465;28;1168;-74
2023/05/02 08:59:15;;;;;;;;;;;;;;;21.67;28.48;98703.81;5125905;27;1008;-74
2023/05/02 09:01:41;;;;;;;;;;;;;;;21.56;28.41;98693.44;5092730;28;1184;-75
2023/05/02 09:04:07;;;;;;;;;;;;;;;21.54;28.45;98700.75;5092016;28;902;-74
2023/05/02 09:06:33;;;;;;;;;;;;;;;21.66;28.05;98703.00;5109126;28;795;-75
2023/05/02 09:08:59;;;;;;;;;;;;;;;21.69;28.20;98713.47;5091989;28;1338;-75
2023/05/02 09:11:25;;;;;;;;;;;;;;;21.79;27.85;98709.66;5108449;28;1972;-75
2023/05/02 09:13:51;;;;;;;;;;;;;;;21.85;27.89;98702.25;5130918;28;984;-75
2023/05/02 09:16:16;;;;;;;;;;;;;;;21.70;28.26;98700.09;5113838;27;833;-75
2023/05/02 09:18:45;;;;;;;;;;;;;;;21.43;28.52;98705.78;5131400;28;772;-76
2023/05/02 09:21:14;;;;;;;;;;;;;;;21.84;27.74;98700.66;5113898;28;845;-75
2023/05/02 09:23:40;;;;;;;;;;;;;;;21.57;28.37;98699.91;5104842;28;818;-74
2023/05/02 09:26:12;;;;;;;;;;;;;;;21.50;28.60;98700.00;5083330;28;1375;-75
2023/05/02 09:28:42;;;;;;;;;;;;;;;21.49;28.43;98692.72;5083432;28;1189;-75
2023/05/02 09:31:08;;;;;;;;;;;;;;;21.59;28.46;98688.94;5083338;28;1902;-75
2023/05/02 09:33:34;;;;;;;;;;;;;;;21.63;28.30;98686.06;5083196;28;1368;-74
2023/05/02 09:35:59;;;;;;;;;;;;;;;21.65;28.02;98690.03;5083364;28;1447;-75
2023/05/02 09:38:25;;;;;;;;;;;;;;;21.61;28.29;98694.19;5079579;28;915;-75
2023/05/02 09:40:56;;;;;;;;;;;;;;;21.69;27.92;98690.78;5062879;28;1610;-75
2023/05/02 09:43:22;;;;;;;;;;;;;;;21.42;28.30;98688.00;5063265;28;1232;-75
2023/05/02 09:46:10;;;;;;;;;;;;;;;22.26;27.65;98694.72;5078044;28;968;-74
2023/05/02 09:49:02;;;;;;;;;;;;;;;22.52;27.12;98690.19;5032974;28;1173;-76
2023/05/02 09:51:27;;;;;;;;;;;;;;;22.06;28.04;98691.78;4954453;29;1985;-76
2023/05/02 09:53:53;;;;;;;;;;;;;;;21.58;28.55;98685.31;4939159;29;991;-75
2023/05/02 09:56:19;;;;;;;;;;;;;;;21.87;28.00;98689.72;4955683;29;1268;-75
2023/05/02 09:58:45;;;;;;;;;;;;;;;21.68;28.35;98694.88;4920108;29;982;-75
2023/05/02 10:01:14;;;;;;;;;;;;;;;21.49;28.77;98690.69;4919952;29;927;-76
2023/05/02 10:03:40;;;;;;;;;;;;;;;21.63;28.44;98684.03;4904347;29;1119;-75
2023/05/02 10:06:06;;;;;;;;;;;;;;;21.59;28.78;98697.44;4920040;29;952;-75
2023/05/02 10:08:31;;;;;;;;;;;;;;;21.87;28.27;98696.19;4920106;29;1000;-76
2023/05/02 10:10:57;;;;;;;;;;;;;;;21.68;28.34;98700.53;4900621;29;1907;-75
2023/05/02 10:13:25;;;;;;;;;;;;;;;21.41;28.82;98694.09;4885640;29;1355;-76
2023/05/02 10:16:11;;;;;;;;;;;;;;;21.35;28.87;98690.09;4904134;29;1775;-76
2023/05/02 10:18:39;;;;;;;;;;;;;;;21.57;28.74;98688.56;4919556;29;1024;-76
2023/05/02 10:21:07;;;;;;;;;;;;;;;21.35;28.81;98692.94;4920022;29;1108;-75
2023/05/02 10:23:32;;;;;;;;;;;;;;;21.82;28.39;98691.81;4919859;29;1000;-75
2023/05/02 10:25:58;;;;;;;;;;;;;;;22.32;27.54;98693.78;4944874;28;1120;-75
2023/05/02 10:28:24;;;;;;;;;;;;;;;22.48;27.24;98695.91;4979268;28;1274;-76
2023/05/02 10:30:50;;;;;;;;;;;;;;;22.60;27.35;98691.66;4980143;28;1898;-76
2023/05/02 10:33:16;;;;;;;;;;;;;;;22.04;27.89;98692.25;4980208;28;979;-75
2023/05/02 10:35:42;;;;;;;;;;;;;;;21.46;28.92;98682.28;4975939;28;1276;-76
2023/05/02 10:38:08;;;;;;;;;;;;;;;21.58;28.41;98695.84;4977182;28;965;-75
2023/05/02 10:40:33;;;;;;;;;;;;;;;21.58;28.50;98690.97;4992969;28;906;-76
2023/05/02 10:42:59;;;;;;;;;;;;;;;21.65;28.55;98695.72;4992998;28;1033;-75
2023/05/02 10:45:34;;;;;;;;;;;;;;;21.62;28.76;98695.78;4992989;28;911;-76
2023/05/02 10:48:11;;;;;;;;;;;;;;;21.77;28.43;98680.97;5033842;28;1642;-75
2023/05/02 10:50:46;;;;;;;;;;;;;;;21.48;28.78;98688.31;5035436;28;1025;-77
2023/05/02 10:53:43;;;;;;;;;;;;;;;21.61;28.52;98697.81;5019170;28;1051;-75
2023/05/02 10:56:12;;;;;;;;;;;;;;;21.52;28.79;98689.84;4999192;28;1021;-75
2023/05/02 10:58:38;;;;;;;;;;;;;;;21.51;28.51;98690.28;4998940;28;1220;-76
2023/05/02 11:01:22;;;;;;;;;;;;;;;21.31;28.98;98693.00;4998973;28;949;-75
2023/05/02 11:04:03;;;;;;;;;;;;;;;21.31;29.08;98693.81;4998981;28;991;-76
2023/05/02 11:06:29;;;;;;;;;;;;;;;21.40;29.09;98696.13;5015236;28;1054;-75
2023/05/02 11:09:14;;;;;;;;;;;;;;;22.20;28.06;98685.13;5034772;28;1005;-75
2023/05/02 11:11:40;;;;;;;;;;;;;;;22.55;27.48;98684.44;5002100;28;1975;-73
2023/05/02 11:14:05;;;;;;;;;;;;;;;22.12;27.71;98689.28;5035046;28;1008;-74
2023/05/02 11:16:49;;;;;;;;;;;;;;;21.61;28.40;98694.19;5002862;28;1219;-73
2023/05/02 11:19:15;;;;;;;;;;;;;;;21.59;28.51;98686.91;5018210;28;1438;-73
2023/05/02 11:21:40;;;;;;;;;;;;;;;21.44;28.60;98694.00;5002663;28;1127;-73
2023/05/02 11:24:24;;;;;;;;;;;;;;;21.31;28.77;98679.66;5002137;28;1442;-73
2023/05/02 11:26:50;;;;;;;;;;;;;;;21.45;28.71;98680.66;5018181;28;1002;-73
2023/05/02 11:29:35;;;;;;;;;;;;;;;21.14;28.98;98683.53;5018481;28;962;-73
2023/05/02 11:32:01;;;;;;;;;;;;;;;21.31;28.87;98681.69;5034762;28;1977;-73
2023/05/02 11:34:26;;;;;;;;;;;;;;;21.40;28.86;98683.97;5034730;28;973;-74
2023/05/02 11:36:52;;;;;;;;;;;;;;;22.02;28.11;98682.56;5028438;28;1214;-74
2023/05/02 11:39:18;;;;;;;;;;;;;;;22.25;27.40;98682.59;5093377;28;1049;-73
2023/05/02 11:41:46;;;;;;;;;;;;;;;21.55;28.73;98693.84;5075583;28;924;-74
2023/05/02 11:44:11;;;;;;;;;;;;;;;21.62;28.33;98682.44;5091969;28;1006;-73
2023/05/02 11:46:37;;;;;;;;;;;;;;;21.70;28.28;98675.41;5109136;28;947;-73
2023/05/02 11:49:03;;;;;;;;;;;;;;;21.69;28.13;98685.13;5109964;28;1107;-73
2023/05/02 11:51:28;;;;;;;;;;;;;;;21.24;28.64;98676.09;5092237;28;1985;-73
2023/05/02 11:53:55;;;;;;;;;;;;;;;21.21;28.92;98680.59;5075414;28;1257;-73
2023/05/02 11:56:25;;;;;;;;;;;;;;;21.29;28.82;98679.22;5091908;28;930;-73
2023/05/02 11:58:57;;;;;;;;;;;;;;;21.40;28.46;98678.31;5075362;28;977;-74
2023/05/02 12:01:23;;;;;;;;;;;;;;;21.06;28.84;98637.53;5109164;28;989;-73
2023/05/02 12:03:51;;;;;;;;;;;;;;;21.72;28.11;98672.97;5076871;28;849;-73
2023/05/02 12:06:19;;;;;;;;;;;;;;;22.12;27.33;98678.75;5075142;28;941;-73
2023/05/02 12:08:45;;;;;;;;;;;;;;;21.97;27.37;98683.88;5075347;28;961;-73
2023/05/02 12:11:16;;;;;;;;;;;;;;;21.60;27.92;98693.38;5058336;28;1910;-74
2023/05/02 12:13:46;;;;;;;;;;;;;;;21.42;28.30;98687.19;5075351;28;1418;-73
2023/05/02 12:16:12;;;;;;;;;;;;;;;21.30;28.57;98686.56;5058875;28;1243;-73
2023/05/02 12:18:37;;;;;;;;;;;;;;;21.49;28.03;98681.41;5074200;28;972;-73
2023/05/02 12:21:03;;;;;;;;;;;;;;;21.46;28.26;98688.75;5074383;28;1013;-74
2023/05/02 12:23:29;;;;;;;;;;;;;;;21.83;27.79;98690.56;5090760;28;987;-73
2023/05/02 12:25:55;;;;;;;;;;;;;;;21.95;27.57;98691.19;5074280;28;881;-74
2023/05/02 12:28:22;;;;;;;;;;;;;;;21.87;27.77;98676.34;5057826;28;962;-73
2023/05/02 12:30:48;;;;;;;;;;;;;;;21.61;27.93;98661.00;5057591;28;1984;-73
2023/05/02 12:33:15;;;;;;;;;;;;;;;21.46;28.22;98676.63;5070578;28;1585;-73
2023/05/02 12:35:41;;;;;;;;;;;;;;;21.53;27.82;98676.50;5054013;28;890;-73
2023/05/02 12:38:10;;;;;;;;;;;;;;;21.23;28.37;98668.81;5053876;28;892;-73
2023/05/02 12:40:36;;;;;;;;;;;;;;;21.30;28.21;98661.06;5053768;28;1104;-73
2023/05/02 12:43:09;;;;;;;;;;;;;;;21.60;27.70;98670.72;5053943;28;996;-73
2023/05/02 12:45:35;;;;;;;;;;;;;;;21.81;27.63;98661.88;5037452;28;1311;-74
2023/05/02 12:48:01;;;;;;;;;;;;;;;21.94;27.51;98656.38;5037153;28;1081;-74
2023/05/02 12:50:38;;;;;;;;;;;;;;;21.91;27.38;98662.09;5070933;28;1157;-72
2023/05/02 12:53:05;;;;;;;;;;;;;;;21.69;27.88;98667.34;5040523;28;1902;-73
2023/05/02 12:55:31;;;;;;;;;;;;;;;21.32;28.23;98655.78;5057156;28;917;-73
2023/05/02 12:57:59;;;;;;;;;;;;;;;21.47;28.07;98658.41;5057930;28;1064;-73
2023/05/02 13:00:25;;;;;;;;;;;;;;;21.35;28.08;98656.13;5060469;28;977;-73
2023/05/02 13:02:51;;;;;;;;;;;;;;;21.46;27.97;98653.97;5060763;28;949;-73